Terminal Aerodrome Forecast
Issued by NWS Cleveland, OH

Home | Current Version | Previous Version | Text Only | Print | Product List | Glossary Off
Versions: 1 2 3 4 5 6 7 8 9 10 11 12 13 14 15 16 17 18 19 20 21 22

000
FTUS41 KCLE 262300
TAFYNG
TAF
KYNG 262338Z 2700/2724 21007KT P6SM VCTS BKN045CB
      TEMPO 2700/2704 2SM -TSRA OVC018CB
     FM270400 22007KT P6SM BKN025
     FM270600 23003KT 4SM BR SCT012 OVC025
     FM271500 22008KT P6SM OVC030
     FM271800 19012KT P6SM VCTS OVC035CB=

USA.gov is the U.S. government's official web portal to all federal, state and local government web resources and services.